sensor_id;sensor_type;location;lat;lon;timestamp;temperature;humidity
72952;HTU21D;61102;51.956;5.878;2023-06-14T00:02:09;23.14;28.49
72952;HTU21D;61102;51.956;5.878;2023-06-14T00:04:36;23.13;28.61
72952;HTU21D;61102;51.956;5.878;2023-06-14T00:07:03;23.08;28.65
72952;HTU21D;61102;51.956;5.878;2023-06-14T00:09:29;23.02;28.77
72952;HTU21D;61102;51.956;5.878;2023-06-14T00:11:55;22.99;28.85
72952;HTU21D;61102;51.956;5.878;2023-06-14T00:14:21;22.97;28.98
72952;HTU21D;61102;51.956;5.878;2023-06-14T00:16:47;22.90;29.03
72952;HTU21D;61102;51.956;5.878;2023-06-14T00:19:14;22.90;29.15
72952;HTU21D;61102;51.956;5.878;2023-06-14T00:21:40;22.86;29.22
72952;HTU21D;61102;51.956;5.878;2023-06-14T00:24:07;22.82;29.40
72952;HTU21D;61102;51.956;5.878;2023-06-14T00:26:33;22.79;29.35
72952;HTU21D;61102;51.956;5.878;2023-06-14T00:28:59;22.78;29.54
72952;HTU21D;61102;51.956;5.878;2023-06-14T00:31:26;22.72;29.57
72952;HTU21D;61102;51.956;5.878;2023-06-14T00:33:53;22.70;29.65
72952;HTU21D;61102;51.956;5.878;2023-06-14T00:36:19;22.67;29.61
72952;HTU21D;61102;51.956;5.878;2023-06-14T00:38:45;22.66;29.90
72952;HTU21D;61102;51.956;5.878;2023-06-14T00:41:12;22.62;29.79
72952;HTU21D;61102;51.956;5.878;2023-06-14T00:43:38;22.58;29.88
72952;HTU21D;61102;51.956;5.878;2023-06-14T00:46:03;22.55;30.04
72952;HTU21D;61102;51.956;5.878;2023-06-14T00:48:30;22.51;30.14
72952;HTU21D;61102;51.956;5.878;2023-06-14T00:50:57;22.50;30.25
72952;HTU21D;61102;51.956;5.878;2023-06-14T00:53:23;22.50;30.45
72952;HTU21D;61102;51.956;5.878;2023-06-14T00:55:51;22.46;30.37
72952;HTU21D;61102;51.956;5.878;2023-06-14T00:58:17;22.43;30.41
72952;HTU21D;61102;51.956;5.878;2023-06-14T01:00:43;22.43;30.64
72952;HTU21D;61102;51.956;5.878;2023-06-14T01:03:10;22.39;30.64
72952;HTU21D;61102;51.956;5.878;2023-06-14T01:05:38;22.39;30.73
72952;HTU21D;61102;51.956;5.878;2023-06-14T01:10:58;22.38;30.83
72952;HTU21D;61102;51.956;5.878;2023-06-14T01:13:36;22.35;30.83
72952;HTU21D;61102;51.956;5.878;2023-06-14T01:16:02;22.33;30.85
72952;HTU21D;61102;51.956;5.878;2023-06-14T01:18:30;22.29;30.93
72952;HTU21D;61102;51.956;5.878;2023-06-14T01:20:58;22.27;31.00
72952;HTU21D;61102;51.956;5.878;2023-06-14T01:23:25;22.23;31.03
72952;HTU21D;61102;51.956;5.878;2023-06-14T01:25:52;22.21;31.09
72952;HTU21D;61102;51.956;5.878;2023-06-14T01:28:20;22.18;31.16
72952;HTU21D;61102;51.956;5.878;2023-06-14T01:30:50;22.16;31.34
72952;HTU21D;61102;51.956;5.878;2023-06-14T01:33:20;22.12;31.35
72952;HTU21D;61102;51.956;5.878;2023-06-14T01:35:51;22.10;31.53
72952;HTU21D;61102;51.956;5.878;2023-06-14T01:38:20;22.07;31.55
72952;HTU21D;61102;51.956;5.878;2023-06-14T01:40:47;22.03;31.66
72952;HTU21D;61102;51.956;5.878;2023-06-14T01:43:15;22.01;31.74
72952;HTU21D;61102;51.956;5.878;2023-06-14T01:45:41;22.43;31.15
72952;HTU21D;61102;51.956;5.878;2023-06-14T01:48:08;22.11;31.63
72952;HTU21D;61102;51.956;5.878;2023-06-14T01:50:35;21.99;31.83
72952;HTU21D;61102;51.956;5.878;2023-06-14T01:53:01;21.92;31.85
72952;HTU21D;61102;51.956;5.878;2023-06-14T01:55:27;21.89;31.97
72952;HTU21D;61102;51.956;5.878;2023-06-14T01:57:53;21.83;32.11
72952;HTU21D;61102;51.956;5.878;2023-06-14T02:00:20;21.80;32.12
72952;HTU21D;61102;51.956;5.878;2023-06-14T02:02:47;21.77;32.35
72952;HTU21D;61102;51.956;5.878;2023-06-14T02:05:14;21.77;32.47
72952;HTU21D;61102;51.956;5.878;2023-06-14T02:07:45;21.75;32.48
72952;HTU21D;61102;51.956;5.878;2023-06-14T02:10:14;21.74;32.44
72952;HTU21D;61102;51.956;5.878;2023-06-14T02:12:43;21.69;32.46
72952;HTU21D;61102;51.956;5.878;2023-06-14T02:15:10;21.67;32.56
72952;HTU21D;61102;51.956;5.878;2023-06-14T02:17:43;21.66;32.64
72952;HTU21D;61102;51.956;5.878;2023-06-14T02:20:10;21.63;32.64
72952;HTU21D;61102;51.956;5.878;2023-06-14T02:22:36;21.62;32.76
72952;HTU21D;61102;51.956;5.878;2023-06-14T02:25:02;21.60;32.83
72952;HTU21D;61102;51.956;5.878;2023-06-14T02:27:28;21.58;32.91
72952;HTU21D;61102;51.956;5.878;2023-06-14T02:29:55;21.54;32.96
72952;HTU21D;61102;51.956;5.878;2023-06-14T02:32:21;21.51;33.13
72952;HTU21D;61102;51.956;5.878;2023-06-14T02:34:47;21.50;33.18
72952;HTU21D;61102;51.956;5.878;2023-06-14T02:37:16;21.48;33.20
72952;HTU21D;61102;51.956;5.878;2023-06-14T02:39:42;21.45;33.22
72952;HTU21D;61102;51.956;5.878;2023-06-14T02:42:08;21.43;33.44
72952;HTU21D;61102;51.956;5.878;2023-06-14T02:44:34;21.40;33.50
72952;HTU21D;61102;51.956;5.878;2023-06-14T02:47:01;21.38;33.54
72952;HTU21D;61102;51.956;5.878;2023-06-14T02:49:28;21.36;33.60
72952;HTU21D;61102;51.956;5.878;2023-06-14T02:51:54;21.33;33.81
72952;HTU21D;61102;51.956;5.878;2023-06-14T02:54:20;21.32;33.71
72952;HTU21D;61102;51.956;5.878;2023-06-14T02:56:59;21.30;34.01
72952;HTU21D;61102;51.956;5.878;2023-06-14T02:59:25;21.29;33.86
72952;HTU21D;61102;51.956;5.878;2023-06-14T03:01:54;21.24;33.91
72952;HTU21D;61102;51.956;5.878;2023-06-14T03:04:20;21.22;33.92
72952;HTU21D;61102;51.956;5.878;2023-06-14T03:06:46;21.20;33.89
72952;HTU21D;61102;51.956;5.878;2023-06-14T03:09:17;21.17;34.05
72952;HTU21D;61102;51.956;5.878;2023-06-14T03:11:43;21.15;34.13
72952;HTU21D;61102;51.956;5.878;2023-06-14T03:14:09;21.14;34.21
72952;HTU21D;61102;51.956;5.878;2023-06-14T03:16:37;21.10;34.31
72952;HTU21D;61102;51.956;5.878;2023-06-14T03:19:10;21.11;34.36
72952;HTU21D;61102;51.956;5.878;2023-06-14T03:21:36;21.09;34.56
72952;HTU21D;61102;51.956;5.878;2023-06-14T03:24:03;21.07;34.65
72952;HTU21D;61102;51.956;5.878;2023-06-14T03:26:30;21.05;34.70
72952;HTU21D;61102;51.956;5.878;2023-06-14T03:28:59;21.04;34.65
72952;HTU21D;61102;51.956;5.878;2023-06-14T03:31:25;21.02;34.81
72952;HTU21D;61102;51.956;5.878;2023-06-14T03:33:52;21.01;34.86
72952;HTU21D;61102;51.956;5.878;2023-06-14T03:36:19;20.98;34.87
72952;HTU21D;61102;51.956;5.878;2023-06-14T03:38:46;20.95;34.91
72952;HTU21D;61102;51.956;5.878;2023-06-14T03:41:13;20.93;35.02
72952;HTU21D;61102;51.956;5.878;2023-06-14T03:43:40;20.94;34.99
72952;HTU21D;61102;51.956;5.878;2023-06-14T03:46:06;20.92;34.99
72952;HTU21D;61102;51.956;5.878;2023-06-14T03:48:34;20.93;35.05
72952;HTU21D;61102;51.956;5.878;2023-06-14T03:51:01;20.91;35.20
72952;HTU21D;61102;51.956;5.878;2023-06-14T03:53:29;20.89;35.28
72952;HTU21D;61102;51.956;5.878;2023-06-14T03:55:56;20.87;35.37
72952;HTU21D;61102;51.956;5.878;2023-06-14T03:58:25;20.87;35.42
72952;HTU21D;61102;51.956;5.878;2023-06-14T04:00:51;20.88;35.37
72952;HTU21D;61102;51.956;5.878;2023-06-14T04:03:17;20.87;35.51
72952;HTU21D;61102;51.956;5.878;2023-06-14T04:05:45;20.86;35.49
72952;HTU21D;61102;51.956;5.878;2023-06-14T04:08:15;20.87;35.60
72952;HTU21D;61102;51.956;5.878;2023-06-14T04:10:41;20.86;35.64
72952;HTU21D;61102;51.956;5.878;2023-06-14T04:13:07;20.88;35.79
72952;HTU21D;61102;51.956;5.878;2023-06-14T04:15:34;20.87;35.85
72952;HTU21D;61102;51.956;5.878;2023-06-14T04:18:01;20.90;35.86
72952;HTU21D;61102;51.956;5.878;2023-06-14T04:20:27;20.95;35.86
72952;HTU21D;61102;51.956;5.878;2023-06-14T04:22:57;20.99;35.86
72952;HTU21D;61102;51.956;5.878;2023-06-14T04:25:23;21.07;35.64
72952;HTU21D;61102;51.956;5.878;2023-06-14T04:27:55;21.16;35.68
72952;HTU21D;61102;51.956;5.878;2023-06-14T04:30:21;21.24;35.61
72952;HTU21D;61102;51.956;5.878;2023-06-14T04:32:52;21.32;35.50
72952;HTU21D;61102;51.956;5.878;2023-06-14T04:35:19;21.38;35.33
72952;HTU21D;61102;51.956;5.878;2023-06-14T04:37:47;21.45;35.33
72952;HTU21D;61102;51.956;5.878;2023-06-14T04:40:13;21.53;35.19
72952;HTU21D;61102;51.956;5.878;2023-06-14T04:42:40;22.07;34.32
72952;HTU21D;61102;51.956;5.878;2023-06-14T04:45:10;21.81;34.75
72952;HTU21D;61102;51.956;5.878;2023-06-14T04:47:38;21.80;34.85
72952;HTU21D;61102;51.956;5.878;2023-06-14T04:50:06;21.87;34.82
72952;HTU21D;61102;51.956;5.878;2023-06-14T04:52:32;21.90;34.80
72952;HTU21D;61102;51.956;5.878;2023-06-14T04:54:59;21.96;34.78
72952;HTU21D;61102;51.956;5.878;2023-06-14T04:57:26;21.99;34.74
72952;HTU21D;61102;51.956;5.878;2023-06-14T04:59:56;22.08;34.72
72952;HTU21D;61102;51.956;5.878;2023-06-14T05:02:25;22.19;34.60
72952;HTU21D;61102;51.956;5.878;2023-06-14T05:04:53;22.26;34.47
72952;HTU21D;61102;51.956;5.878;2023-06-14T05:07:19;22.37;34.37
72952;HTU21D;61102;51.956;5.878;2023-06-14T05:09:46;22.44;34.29
72952;HTU21D;61102;51.956;5.878;2023-06-14T05:12:13;22.55;34.12
72952;HTU21D;61102;51.956;5.878;2023-06-14T05:14:39;22.64;33.98
72952;HTU21D;61102;51.956;5.878;2023-06-14T05:17:06;22.69;33.90
72952;HTU21D;61102;51.956;5.878;2023-06-14T05:19:35;22.77;33.79
72952;HTU21D;61102;51.956;5.878;2023-06-14T05:22:02;22.86;33.74
72952;HTU21D;61102;51.956;5.878;2023-06-14T05:24:28;22.92;33.72
72952;HTU21D;61102;51.956;5.878;2023-06-14T05:26:58;22.99;33.62
72952;HTU21D;61102;51.956;5.878;2023-06-14T05:29:24;23.07;33.51
72952;HTU21D;61102;51.956;5.878;2023-06-14T05:31:50;23.14;33.43
72952;HTU21D;61102;51.956;5.878;2023-06-14T05:34:16;23.23;33.35
72952;HTU21D;61102;51.956;5.878;2023-06-14T05:36:42;23.29;33.29
72952;HTU21D;61102;51.956;5.878;2023-06-14T05:39:08;23.42;33.08
72952;HTU21D;61102;51.956;5.878;2023-06-14T05:41:35;23.44;32.97
72952;HTU21D;61102;51.956;5.878;2023-06-14T05:44:01;23.53;32.93
72952;HTU21D;61102;51.956;5.878;2023-06-14T05:46:27;23.60;32.84
72952;HTU21D;61102;51.956;5.878;2023-06-14T05:48:54;23.67;32.84
72952;HTU21D;61102;51.956;5.878;2023-06-14T05:51:21;23.76;32.70
72952;HTU21D;61102;51.956;5.878;2023-06-14T05:53:48;23.87;32.60
72952;HTU21D;61102;51.956;5.878;2023-06-14T05:56:14;23.92;32.38
72952;HTU21D;61102;51.956;5.878;2023-06-14T05:58:41;24.48;31.53
72952;HTU21D;61102;51.956;5.878;2023-06-14T06:01:07;24.21;31.91
72952;HTU21D;61102;51.956;5.878;2023-06-14T06:03:33;24.17;32.15
72952;HTU21D;61102;51.956;5.878;2023-06-14T06:05:59;24.24;32.07
72952;HTU21D;61102;51.956;5.878;2023-06-14T06:08:26;24.28;32.00
72952;HTU21D;61102;51.956;5.878;2023-06-14T06:10:52;24.38;31.94
72952;HTU21D;61102;51.956;5.878;2023-06-14T06:13:18;24.47;31.86
72952;HTU21D;61102;51.956;5.878;2023-06-14T06:15:44;24.58;31.79
72952;HTU21D;61102;51.956;5.878;2023-06-14T06:18:11;24.66;31.65
72952;HTU21D;61102;51.956;5.878;2023-06-14T06:20:37;24.76;31.62
72952;HTU21D;61102;51.956;5.878;2023-06-14T06:23:03;24.90;31.48
72952;HTU21D;61102;51.956;5.878;2023-06-14T06:25:29;25.04;31.35
72952;HTU21D;61102;51.956;5.878;2023-06-14T06:27:58;25.16;31.27
72952;HTU21D;61102;51.956;5.878;2023-06-14T06:30:24;25.29;31.07
72952;HTU21D;61102;51.956;5.878;2023-06-14T06:32:51;25.40;30.96
72952;HTU21D;61102;51.956;5.878;2023-06-14T06:35:17;25.54;30.83
72952;HTU21D;61102;51.956;5.878;2023-06-14T06:37:43;25.65;30.58
72952;HTU21D;61102;51.956;5.878;2023-06-14T06:40:09;25.75;30.14
72952;HTU21D;61102;51.956;5.878;2023-06-14T06:42:36;25.79;29.95
72952;HTU21D;61102;51.956;5.878;2023-06-14T06:45:04;25.88;29.77
72952;HTU21D;61102;51.956;5.878;2023-06-14T06:47:31;25.91;29.51
72952;HTU21D;61102;51.956;5.878;2023-06-14T06:49:57;25.97;29.55
72952;HTU21D;61102;51.956;5.878;2023-06-14T06:52:23;26.06;29.25
72952;HTU21D;61102;51.956;5.878;2023-06-14T06:54:49;26.15;29.10
72952;HTU21D;61102;51.956;5.878;2023-06-14T06:57:16;26.24;28.98
72952;HTU21D;61102;51.956;5.878;2023-06-14T06:59:42;26.37;28.81
72952;HTU21D;61102;51.956;5.878;2023-06-14T07:02:11;26.51;28.65
72952;HTU21D;61102;51.956;5.878;2023-06-14T07:04:37;26.56;28.61
72952;HTU21D;61102;51.956;5.878;2023-06-14T07:07:04;26.66;28.54
72952;HTU21D;61102;51.956;5.878;2023-06-14T07:09:30;26.82;28.33
72952;HTU21D;61102;51.956;5.878;2023-06-14T07:11:56;26.85;27.97
72952;HTU21D;61102;51.956;5.878;2023-06-14T07:14:22;26.83;27.88
72952;HTU21D;61102;51.956;5.878;2023-06-14T07:16:48;26.87;28.00
72952;HTU21D;61102;51.956;5.878;2023-06-14T07:19:15;26.91;27.79
72952;HTU21D;61102;51.956;5.878;2023-06-14T07:21:41;26.95;27.73
72952;HTU21D;61102;51.956;5.878;2023-06-14T07:24:13;27.05;27.70
72952;HTU21D;61102;51.956;5.878;2023-06-14T07:26:39;27.09;27.39
72952;HTU21D;61102;51.956;5.878;2023-06-14T07:29:05;27.12;27.28
72952;HTU21D;61102;51.956;5.878;2023-06-14T07:31:32;27.21;26.91
72952;HTU21D;61102;51.956;5.878;2023-06-14T07:33:58;27.27;27.03
72952;HTU21D;61102;51.956;5.878;2023-06-14T07:36:24;27.34;26.65
72952;HTU21D;61102;51.956;5.878;2023-06-14T07:38:50;27.40;26.55
72952;HTU21D;61102;51.956;5.878;2023-06-14T07:41:16;27.45;26.20
72952;HTU21D;61102;51.956;5.878;2023-06-14T07:43:42;27.47;26.17
72952;HTU21D;61102;51.956;5.878;2023-06-14T07:46:08;27.56;26.07
72952;HTU21D;61102;51.956;5.878;2023-06-14T07:48:35;27.68;25.60
72952;HTU21D;61102;51.956;5.878;2023-06-14T07:51:01;27.74;25.55
72952;HTU21D;61102;51.956;5.878;2023-06-14T07:53:27;27.86;25.52
72952;HTU21D;61102;51.956;5.878;2023-06-14T07:55:53;27.99;25.43
72952;HTU21D;61102;51.956;5.878;2023-06-14T07:58:19;28.09;24.78
72952;HTU21D;61102;51.956;5.878;2023-06-14T08:00:46;28.15;24.58
72952;HTU21D;61102;51.956;5.878;2023-06-14T08:03:13;28.24;24.59
72952;HTU21D;61102;51.956;5.878;2023-06-14T08:05:39;28.72;23.28
72952;HTU21D;61102;51.956;5.878;2023-06-14T08:08:05;28.90;23.12
72952;HTU21D;61102;51.956;5.878;2023-06-14T08:10:31;28.62;23.89
72952;HTU21D;61102;51.956;5.878;2023-06-14T08:12:57;28.61;23.70
72952;HTU21D;61102;51.956;5.878;2023-06-14T08:15:23;28.57;23.44
72952;HTU21D;61102;51.956;5.878;2023-06-14T08:17:49;28.53;23.08
72952;HTU21D;61102;51.956;5.878;2023-06-14T08:20:16;28.52;23.19
72952;HTU21D;61102;51.956;5.878;2023-06-14T08:22:43;28.57;22.79
72952;HTU21D;61102;51.956;5.878;2023-06-14T08:25:09;28.60;22.71
72952;HTU21D;61102;51.956;5.878;2023-06-14T08:27:35;28.74;22.63
72952;HTU21D;61102;51.956;5.878;2023-06-14T08:30:02;28.83;22.71
72952;HTU21D;61102;51.956;5.878;2023-06-14T08:32:28;28.91;22.72
72952;HTU21D;61102;51.956;5.878;2023-06-14T08:34:54;29.03;22.64
72952;HTU21D;61102;51.956;5.878;2023-06-14T08:37:20;29.12;22.59
72952;HTU21D;61102;51.956;5.878;2023-06-14T08:39:46;29.13;22.53
72952;HTU21D;61102;51.956;5.878;2023-06-14T08:42:14;29.13;22.48
72952;HTU21D;61102;51.956;5.878;2023-06-14T08:44:40;29.15;22.41
72952;HTU21D;61102;51.956;5.878;2023-06-14T08:47:07;29.22;22.05
72952;HTU21D;61102;51.956;5.878;2023-06-14T08:49:36;29.23;21.53
72952;HTU21D;61102;51.956;5.878;2023-06-14T08:52:08;29.26;21.28
72952;HTU21D;61102;51.956;5.878;2023-06-14T08:54:36;29.30;21.24
72952;HTU21D;61102;51.956;5.878;2023-06-14T08:57:12;29.44;21.30
72952;HTU21D;61102;51.956;5.878;2023-06-14T08:59:47;29.62;21.21
72952;HTU21D;61102;51.956;5.878;2023-06-14T09:02:15;29.74;21.08
72952;HTU21D;61102;51.956;5.878;2023-06-14T09:04:44;29.78;21.23
72952;HTU21D;61102;51.956;5.878;2023-06-14T09:07:11;29.78;21.19
72952;HTU21D;61102;51.956;5.878;2023-06-14T09:09:39;29.67;20.76
72952;HTU21D;61102;51.956;5.878;2023-06-14T09:12:08;29.62;21.09
72952;HTU21D;61102;51.956;5.878;2023-06-14T09:14:36;29.73;20.86
72952;HTU21D;61102;51.956;5.878;2023-06-14T09:17:32;29.83;21.02
72952;HTU21D;61102;51.956;5.878;2023-06-14T09:20:06;29.89;20.95
72952;HTU21D;61102;51.956;5.878;2023-06-14T09:22:36;29.97;21.00
72952;HTU21D;61102;51.956;5.878;2023-06-14T09:25:02;30.06;20.95
72952;HTU21D;61102;51.956;5.878;2023-06-14T09:27:29;30.09;21.14
72952;HTU21D;61102;51.956;5.878;2023-06-14T09:29:55;30.19;20.98
72952;HTU21D;61102;51.956;5.878;2023-06-14T09:32:22;30.25;20.06
72952;HTU21D;61102;51.956;5.878;2023-06-14T09:34:48;30.13;20.10
72952;HTU21D;61102;51.956;5.878;2023-06-14T09:37:28;30.13;19.57
72952;HTU21D;61102;51.956;5.878;2023-06-14T09:39:55;30.03;19.78
72952;HTU21D;61102;51.956;5.878;2023-06-14T09:42:21;30.07;19.91
72952;HTU21D;61102;51.956;5.878;2023-06-14T09:44:49;30.00;20.08
72952;HTU21D;61102;51.956;5.878;2023-06-14T09:47:15;30.47;19.89
72952;HTU21D;61102;51.956;5.878;2023-06-14T09:49:42;30.27;20.34
72952;HTU21D;61102;51.956;5.878;2023-06-14T09:52:15;30.27;20.21
72952;HTU21D;61102;51.956;5.878;2023-06-14T09:54:42;30.26;19.91
72952;HTU21D;61102;51.956;5.878;2023-06-14T09:57:11;30.22;20.36
72952;HTU21D;61102;51.956;5.878;2023-06-14T09:59:43;30.31;20.57
72952;HTU21D;61102;51.956;5.878;2023-06-14T10:02:31;30.37;20.31
72952;HTU21D;61102;51.956;5.878;2023-06-14T10:05:05;30.36;20.44
72952;HTU21D;61102;51.956;5.878;2023-06-14T10:07:38;30.31;20.12
72952;HTU21D;61102;51.956;5.878;2023-06-14T10:10:05;30.26;19.65
72952;HTU21D;61102;51.956;5.878;2023-06-14T10:12:32;30.27;19.34
72952;HTU21D;61102;51.956;5.878;2023-06-14T10:14:58;30.21;19.30
72952;HTU21D;61102;51.956;5.878;2023-06-14T10:17:45;30.01;19.71
72952;HTU21D;61102;51.956;5.878;2023-06-14T10:22:54;29.89;20.25
72952;HTU21D;61102;51.956;5.878;2023-06-14T10:25:28;29.89;20.25
72952;HTU21D;61102;51.956;5.878;2023-06-14T10:28:20;30.03;20.35
72952;HTU21D;61102;51.956;5.878;2023-06-14T10:31:08;30.15;20.45
72952;HTU21D;61102;51.956;5.878;2023-06-14T10:33:36;30.22;20.19
72952;HTU21D;61102;51.956;5.878;2023-06-14T10:39:21;30.24;19.64
72952;HTU21D;61102;51.956;5.878;2023-06-14T10:41:54;30.18;20.00
72952;HTU21D;61102;51.956;5.878;2023-06-14T10:46:47;30.38;19.93
72952;HTU21D;61102;51.956;5.878;2023-06-14T10:49:17;30.49;19.74
72952;HTU21D;61102;51.956;5.878;2023-06-14T10:51:50;30.59;19.47
72952;HTU21D;61102;51.956;5.878;2023-06-14T10:54:20;30.54;18.90
72952;HTU21D;61102;51.956;5.878;2023-06-14T10:56:48;30.53;19.10
72952;HTU21D;61102;51.956;5.878;2023-06-14T10:59:16;30.60;19.14
72952;HTU21D;61102;51.956;5.878;2023-06-14T11:02:27;30.84;18.91
72952;HTU21D;61102;51.956;5.878;2023-06-14T11:05:03;30.89;18.86
72952;HTU21D;61102;51.956;5.878;2023-06-14T11:10:41;30.97;18.33
72952;HTU21D;61102;51.956;5.878;2023-06-14T11:13:09;30.86;18.42
72952;HTU21D;61102;51.956;5.878;2023-06-14T11:15:37;30.83;18.43
72952;HTU21D;61102;51.956;5.878;2023-06-14T11:18:07;30.90;18.48
72952;HTU21D;61102;51.956;5.878;2023-06-14T11:20:36;31.05;18.59
72952;HTU21D;61102;51.956;5.878;2023-06-14T11:23:03;31.13;18.41
72952;HTU21D;61102;51.956;5.878;2023-06-14T11:25:29;31.22;18.09
72952;HTU21D;61102;51.956;5.878;2023-06-14T11:27:56;31.27;18.17
72952;HTU21D;61102;51.956;5.878;2023-06-14T11:30:23;31.38;18.22
72952;HTU21D;61102;51.956;5.878;2023-06-14T11:32:50;31.40;18.15
72952;HTU21D;61102;51.956;5.878;2023-06-14T11:35:18;31.40;18.10
72952;HTU21D;61102;51.956;5.878;2023-06-14T11:37:45;31.46;18.01
72952;HTU21D;61102;51.956;5.878;2023-06-14T11:40:12;31.57;17.83
72952;HTU21D;61102;51.956;5.878;2023-06-14T11:42:40;31.61;17.26
72952;HTU21D;61102;51.956;5.878;2023-06-14T11:45:11;31.71;17.19
72952;HTU21D;61102;51.956;5.878;2023-06-14T11:47:39;31.82;17.17
72952;HTU21D;61102;51.956;5.878;2023-06-14T11:50:07;31.93;17.18
72952;HTU21D;61102;51.956;5.878;2023-06-14T11:52:35;32.17;17.22
72952;HTU21D;61102;51.956;5.878;2023-06-14T11:55:02;32.37;16.91
72952;HTU21D;61102;51.956;5.878;2023-06-14T11:57:34;32.52;16.93
72952;HTU21D;61102;51.956;5.878;2023-06-14T12:00:06;32.75;16.43
72952;HTU21D;61102;51.956;5.878;2023-06-14T12:02:38;32.84;16.15
72952;HTU21D;61102;51.956;5.878;2023-06-14T12:05:07;32.77;16.26
72952;HTU21D;61102;51.956;5.878;2023-06-14T12:07:39;33.04;16.22
72952;HTU21D;61102;51.956;5.878;2023-06-14T12:10:07;33.25;15.86
72952;HTU21D;61102;51.956;5.878;2023-06-14T12:12:37;33.33;15.64
72952;HTU21D;61102;51.956;5.878;2023-06-14T12:15:05;33.42;15.54
72952;HTU21D;61102;51.956;5.878;2023-06-14T12:17:35;33.60;15.31
72952;HTU21D;61102;51.956;5.878;2023-06-14T12:20:09;33.78;15.23
72952;HTU21D;61102;51.956;5.878;2023-06-14T12:22:59;34.02;15.00
72952;HTU21D;61102;51.956;5.878;2023-06-14T12:25:33;34.15;15.11
72952;HTU21D;61102;51.956;5.878;2023-06-14T12:28:08;34.41;15.06
72952;HTU21D;61102;51.956;5.878;2023-06-14T12:30:36;34.59;14.84
72952;HTU21D;61102;51.956;5.878;2023-06-14T12:33:03;34.33;14.93
72952;HTU21D;61102;51.956;5.878;2023-06-14T12:35:29;34.49;15.09
72952;HTU21D;61102;51.956;5.878;2023-06-14T12:37:55;34.63;14.94
72952;HTU21D;61102;51.956;5.878;2023-06-14T12:40:22;34.71;14.90
72952;HTU21D;61102;51.956;5.878;2023-06-14T12:42:48;34.98;14.68
72952;HTU21D;61102;51.956;5.878;2023-06-14T12:45:15;34.85;14.86
72952;HTU21D;61102;51.956;5.878;2023-06-14T12:47:41;34.92;14.82
72952;HTU21D;61102;51.956;5.878;2023-06-14T12:50:08;35.20;14.61
72952;HTU21D;61102;51.956;5.878;2023-06-14T12:52:34;35.45;14.46
72952;HTU21D;61102;51.956;5.878;2023-06-14T12:55:06;35.77;14.26
72952;HTU21D;61102;51.956;5.878;2023-06-14T12:57:32;35.97;14.20
72952;HTU21D;61102;51.956;5.878;2023-06-14T13:00:00;36.25;13.94
72952;HTU21D;61102;51.956;5.878;2023-06-14T13:02:26;36.41;13.51
72952;HTU21D;61102;51.956;5.878;2023-06-14T13:04:52;36.63;13.23
72952;HTU21D;61102;51.956;5.878;2023-06-14T13:07:18;36.88;13.07
72952;HTU21D;61102;51.956;5.878;2023-06-14T13:09:44;37.18;12.90
72952;HTU21D;61102;51.956;5.878;2023-06-14T13:12:11;37.41;12.80
72952;HTU21D;61102;51.956;5.878;2023-06-14T13:14:39;37.57;12.31
72952;HTU21D;61102;51.956;5.878;2023-06-14T13:17:10;37.77;11.88
72952;HTU21D;61102;51.956;5.878;2023-06-14T13:19:36;37.67;11.43
72952;HTU21D;61102;51.956;5.878;2023-06-14T13:22:03;37.70;11.60
72952;HTU21D;61102;51.956;5.878;2023-06-14T13:24:29;37.90;11.41
72952;HTU21D;61102;51.956;5.878;2023-06-14T13:26:56;38.11;11.32
72952;HTU21D;61102;51.956;5.878;2023-06-14T13:29:23;38.38;10.85
72952;HTU21D;61102;51.956;5.878;2023-06-14T13:31:49;38.18;10.49
72952;HTU21D;61102;51.956;5.878;2023-06-14T13:34:15;38.07;10.65
72952;HTU21D;61102;51.956;5.878;2023-06-14T13:36:41;38.44;10.67
72952;HTU21D;61102;51.956;5.878;2023-06-14T13:39:07;38.94;10.24
72952;HTU21D;61102;51.956;5.878;2023-06-14T13:41:33;39.23;10.14
72952;HTU21D;61102;51.956;5.878;2023-06-14T13:43:59;39.27;9.67
72952;HTU21D;61102;51.956;5.878;2023-06-14T13:46:26;39.07;9.72
72952;HTU21D;61102;51.956;5.878;2023-06-14T13:48:52;39.06;9.82
72952;HTU21D;61102;51.956;5.878;2023-06-14T13:51:21;39.40;9.68
72952;HTU21D;61102;51.956;5.878;2023-06-14T13:53:48;39.77;9.50
72952;HTU21D;61102;51.956;5.878;2023-06-14T13:56:15;39.96;9.03
72952;HTU21D;61102;51.956;5.878;2023-06-14T13:58:41;40.14;8.82
72952;HTU21D;61102;51.956;5.878;2023-06-14T14:01:08;39.83;8.70
72952;HTU21D;61102;51.956;5.878;2023-06-14T14:03:34;39.63;8.83
72952;HTU21D;61102;51.956;5.878;2023-06-14T14:06:01;39.38;9.17
72952;HTU21D;61102;51.956;5.878;2023-06-14T14:08:28;39.45;9.34
72952;HTU21D;61102;51.956;5.878;2023-06-14T14:10:54;39.72;9.37
72952;HTU21D;61102;51.956;5.878;2023-06-14T14:13:22;40.02;9.20
72952;HTU21D;61102;51.956;5.878;2023-06-14T14:15:48;40.50;9.08
72952;HTU21D;61102;51.956;5.878;2023-06-14T14:18:17;39.92;9.30
72952;HTU21D;61102;51.956;5.878;2023-06-14T14:20:43;38.19;10.31
72952;HTU21D;61102;51.956;5.878;2023-06-14T14:23:09;36.56;11.84
72952;HTU21D;61102;51.956;5.878;2023-06-14T14:25:35;35.30;13.04
72952;HTU21D;61102;51.956;5.878;2023-06-14T14:28:01;34.25;14.04
72952;HTU21D;61102;51.956;5.878;2023-06-14T14:30:27;33.36;14.89
72952;HTU21D;61102;51.956;5.878;2023-06-14T14:32:56;32.61;15.61
72952;HTU21D;61102;51.956;5.878;2023-06-14T14:35:22;32.05;16.48
72952;HTU21D;61102;51.956;5.878;2023-06-14T14:37:50;31.64;16.99
72952;HTU21D;61102;51.956;5.878;2023-06-14T14:40:16;31.25;17.37
72952;HTU21D;61102;51.956;5.878;2023-06-14T14:42:42;30.92;17.69
72952;HTU21D;61102;51.956;5.878;2023-06-14T14:45:10;30.56;18.48
72952;HTU21D;61102;51.956;5.878;2023-06-14T14:47:36;30.28;18.90
72952;HTU21D;61102;51.956;5.878;2023-06-14T14:50:02;30.09;19.51
72952;HTU21D;61102;51.956;5.878;2023-06-14T14:52:28;29.91;19.68
72952;HTU21D;61102;51.956;5.878;2023-06-14T14:54:54;29.74;19.72
72952;HTU21D;61102;51.956;5.878;2023-06-14T14:57:21;29.64;20.10
72952;HTU21D;61102;51.956;5.878;2023-06-14T14:59:47;29.59;20.22
72952;HTU21D;61102;51.956;5.878;2023-06-14T15:02:13;29.46;20.15
72952;HTU21D;61102;51.956;5.878;2023-06-14T15:04:39;29.32;20.52
72952;HTU21D;61102;51.956;5.878;2023-06-14T15:07:05;29.27;20.69
72952;HTU21D;61102;51.956;5.878;2023-06-14T15:09:32;29.22;20.92
72952;HTU21D;61102;51.956;5.878;2023-06-14T15:11:58;29.18;20.84
72952;HTU21D;61102;51.956;5.878;2023-06-14T15:14:24;29.17;20.95
72952;HTU21D;61102;51.956;5.878;2023-06-14T15:16:50;29.13;20.95
72952;HTU21D;61102;51.956;5.878;2023-06-14T15:19:18;29.07;21.20
72952;HTU21D;61102;51.956;5.878;2023-06-14T15:21:44;29.05;21.21
72952;HTU21D;61102;51.956;5.878;2023-06-14T15:24:10;28.98;21.34
72952;HTU21D;61102;51.956;5.878;2023-06-14T15:26:36;28.92;21.41
72952;HTU21D;61102;51.956;5.878;2023-06-14T15:29:04;28.83;21.44
72952;HTU21D;61102;51.956;5.878;2023-06-14T15:31:30;28.82;21.53
72952;HTU21D;61102;51.956;5.878;2023-06-14T15:33:56;28.80;21.73
72952;HTU21D;61102;51.956;5.878;2023-06-14T15:36:22;28.77;21.82